Moji-Mirim, Brazil
Current Conditions -  °F | °C
As of 1:00 PM on Friday 19 Dec 2014 (Local Time) from SBKP Reporting Station
Broken Clouds Broken Clouds  
Wind Chill: 84°   Ceiling: 3500
Heat Index: 86°   Visibility: 6mi
Dew Point: 66°   Wind: 9mph
Humidity: 55%   Direction: 10°N
Pressure: 29.88"   Gusts: NA
Location:  22.43°S, 46.96°W
Report Text: SBKP 191500Z 01008KT 9999 BKN035 29/19 Q1012
Loading
Personal Weather Stations






























Interactive Weather Map New forecast layout! Learn more

10-Day Weather Forecast

Advertisements
Track Severe Weather on mobile